sensor_id;sensor_type;location;lat;lon;timestamp;pressure;altitude;pressure_sealevel;temperature;humidity
9855;BME280;4966;48.112;9.282;2023-05-29T00:00:22;94671.59;;;11.47;67.54
9855;BME280;4966;48.112;9.282;2023-05-29T00:02:49;94669.31;;;11.49;67.11
9855;BME280;4966;48.112;9.282;2023-05-29T00:05:16;94668.91;;;11.35;67.53
9855;BME280;4966;48.112;9.282;2023-05-29T00:07:41;94668.09;;;11.35;67.75
9855;BME280;4966;48.112;9.282;2023-05-29T00:10:08;94671.84;;;11.30;68.34
9855;BME280;4966;48.112;9.282;2023-05-29T00:12:35;94672.97;;;11.29;68.20
9855;BME280;4966;48.112;9.282;2023-05-29T00:15:01;94667.88;;;11.27;68.09
9855;BME280;4966;48.112;9.282;2023-05-29T00:17:28;94659.84;;;11.06;69.18
9855;BME280;4966;48.112;9.282;2023-05-29T00:19:54;94663.69;;;11.05;69.32
9855;BME280;4966;48.112;9.282;2023-05-29T00:22:19;94668.47;;;11.09;68.71
9855;BME280;4966;48.112;9.282;2023-05-29T00:24:45;94657.69;;;11.12;68.61
9855;BME280;4966;48.112;9.282;2023-05-29T00:27:12;94658.59;;;11.16;68.51
9855;BME280;4966;48.112;9.282;2023-05-29T00:29:37;94658.59;;;11.04;69.56
9855;BME280;4966;48.112;9.282;2023-05-29T00:32:06;94641.91;;;11.18;68.11
9855;BME280;4966;48.112;9.282;2023-05-29T00:34:31;94658.69;;;11.20;67.95
9855;BME280;4966;48.112;9.282;2023-05-29T00:36:57;94652.34;;;11.03;68.93
9855;BME280;4966;48.112;9.282;2023-05-29T00:39:22;94647.72;;;11.04;68.49
9855;BME280;4966;48.112;9.282;2023-05-29T00:41:48;94653.03;;;11.00;68.70
9855;BME280;4966;48.112;9.282;2023-05-29T00:44:17;94657.69;;;11.00;68.47
9855;BME280;4966;48.112;9.282;2023-05-29T00:46:43;94659.28;;;10.89;68.97
9855;BME280;4966;48.112;9.282;2023-05-29T00:49:08;94660.66;;;10.95;69.04
9855;BME280;4966;48.112;9.282;2023-05-29T00:51:34;94663.81;;;10.97;68.25
9855;BME280;4966;48.112;9.282;2023-05-29T00:54:01;94663.69;;;10.81;69.53
9855;BME280;4966;48.112;9.282;2023-05-29T00:56:27;94655.84;;;10.92;69.04
9855;BME280;4966;48.112;9.282;2023-05-29T00:58:52;94661.06;;;10.72;69.77
9855;BME280;4966;48.112;9.282;2023-05-29T01:01:18;94660.28;;;10.84;68.95
9855;BME280;4966;48.112;9.282;2023-05-29T01:03:44;94664.72;;;10.64;69.55
9855;BME280;4966;48.112;9.282;2023-05-29T01:06:10;94661.84;;;10.60;70.10
9855;BME280;4966;48.112;9.282;2023-05-29T01:08:36;94661.44;;;10.71;69.62
9855;BME280;4966;48.112;9.282;2023-05-29T01:11:10;94660.19;;;10.68;70.10
9855;BME280;4966;48.112;9.282;2023-05-29T01:13:41;94655.41;;;10.65;69.97
9855;BME280;4966;48.112;9.282;2023-05-29T01:16:14;94657.09;;;10.57;70.43
9855;BME280;4966;48.112;9.282;2023-05-29T01:19:11;94658.78;;;10.50;70.78
9855;BME280;4966;48.112;9.282;2023-05-29T01:22:11;94659.94;;;10.61;70.16
9855;BME280;4966;48.112;9.282;2023-05-29T01:24:50;94666.88;;;10.71;68.90
9855;BME280;4966;48.112;9.282;2023-05-29T01:27:19;94654.91;;;10.38;70.51
9855;BME280;4966;48.112;9.282;2023-05-29T01:29:47;94665.59;;;10.56;69.85
9855;BME280;4966;48.112;9.282;2023-05-29T01:32:13;94657.66;;;10.51;69.54
9855;BME280;4966;48.112;9.282;2023-05-29T01:34:38;94656.63;;;10.43;69.62
9855;BME280;4966;48.112;9.282;2023-05-29T01:37:03;94656.06;;;10.37;69.74
9855;BME280;4966;48.112;9.282;2023-05-29T01:39:30;94657.16;;;10.36;70.10
9855;BME280;4966;48.112;9.282;2023-05-29T01:41:56;94650.38;;;10.30;69.75
9855;BME280;4966;48.112;9.282;2023-05-29T01:44:22;94650.56;;;10.25;70.83
9855;BME280;4966;48.112;9.282;2023-05-29T01:46:48;94654.34;;;10.33;70.62
9855;BME280;4966;48.112;9.282;2023-05-29T01:49:14;94653.94;;;10.22;70.54
9855;BME280;4966;48.112;9.282;2023-05-29T01:51:41;94659.63;;;9.96;71.92
9855;BME280;4966;48.112;9.282;2023-05-29T01:54:07;94659.84;;;10.24;70.73
9855;BME280;4966;48.112;9.282;2023-05-29T01:56:33;94669.25;;;10.27;69.95
9855;BME280;4966;48.112;9.282;2023-05-29T01:59:00;94665.44;;;10.07;70.15
9855;BME280;4966;48.112;9.282;2023-05-29T02:01:27;94668.81;;;9.91;72.22
9855;BME280;4966;48.112;9.282;2023-05-29T02:03:52;94661.72;;;10.11;71.10
9855;BME280;4966;48.112;9.282;2023-05-29T02:06:18;94670.66;;;10.12;70.44
9855;BME280;4966;48.112;9.282;2023-05-29T02:08:43;94667.97;;;10.12;69.71
9855;BME280;4966;48.112;9.282;2023-05-29T02:11:08;94669.75;;;10.08;69.53
9855;BME280;4966;48.112;9.282;2023-05-29T02:13:34;94680.81;;;10.02;69.80
9855;BME280;4966;48.112;9.282;2023-05-29T02:15:59;94672.34;;;10.04;69.47
9855;BME280;4966;48.112;9.282;2023-05-29T02:18:25;94676.50;;;9.89;69.92
9855;BME280;4966;48.112;9.282;2023-05-29T02:20:50;94677.13;;;9.86;70.68
9855;BME280;4966;48.112;9.282;2023-05-29T02:23:16;94677.94;;;9.87;70.33
9855;BME280;4966;48.112;9.282;2023-05-29T02:25:42;94680.06;;;9.81;70.73
9855;BME280;4966;48.112;9.282;2023-05-29T02:28:07;94674.47;;;9.65;71.64
9855;BME280;4966;48.112;9.282;2023-05-29T02:30:33;94676.16;;;9.28;73.74
9855;BME280;4966;48.112;9.282;2023-05-29T02:32:58;94673.56;;;9.52;72.59
9855;BME280;4966;48.112;9.282;2023-05-29T02:35:24;94670.81;;;9.61;72.24
9855;BME280;4966;48.112;9.282;2023-05-29T02:37:50;94674.66;;;9.60;71.71
9855;BME280;4966;48.112;9.282;2023-05-29T02:40:16;94669.56;;;9.58;71.54
9855;BME280;4966;48.112;9.282;2023-05-29T02:42:41;94671.69;;;9.53;71.64
9855;BME280;4966;48.112;9.282;2023-05-29T02:45:07;94675.44;;;9.61;71.08
9855;BME280;4966;48.112;9.282;2023-05-29T02:47:32;94668.69;;;9.46;71.22
9855;BME280;4966;48.112;9.282;2023-05-29T02:49:58;94673.97;;;9.42;71.96
9855;BME280;4966;48.112;9.282;2023-05-29T02:52:23;94667.63;;;9.38;71.58
9855;BME280;4966;48.112;9.282;2023-05-29T02:54:49;94669.75;;;9.32;72.16
9855;BME280;4966;48.112;9.282;2023-05-29T02:57:14;94666.56;;;9.30;72.44
9855;BME280;4966;48.112;9.282;2023-05-29T02:59:40;94665.56;;;9.35;71.88
9855;BME280;4966;48.112;9.282;2023-05-29T03:02:06;94675.56;;;9.43;71.15
9855;BME280;4966;48.112;9.282;2023-05-29T03:04:31;94678.19;;;9.31;71.32
9855;BME280;4966;48.112;9.282;2023-05-29T03:06:56;94677.88;;;9.32;71.03
9855;BME280;4966;48.112;9.282;2023-05-29T03:09:22;94671.94;;;9.09;72.81
9855;BME280;4966;48.112;9.282;2023-05-29T03:11:47;94674.75;;;9.22;72.05
9855;BME280;4966;48.112;9.282;2023-05-29T03:14:15;94673.22;;;9.12;72.50
9855;BME280;4966;48.112;9.282;2023-05-29T03:16:40;94680.38;;;9.16;72.26
9855;BME280;4966;48.112;9.282;2023-05-29T03:19:06;94675.22;;;9.24;71.90
9855;BME280;4966;48.112;9.282;2023-05-29T03:21:32;94676.81;;;9.25;71.24
9855;BME280;4966;48.112;9.282;2023-05-29T03:23:58;94686.13;;;9.15;70.58
9855;BME280;4966;48.112;9.282;2023-05-29T03:26:23;94676.75;;;9.12;71.20
9855;BME280;4966;48.112;9.282;2023-05-29T03:28:48;94682.72;;;8.97;71.88
9855;BME280;4966;48.112;9.282;2023-05-29T03:31:13;94676.03;;;8.94;72.36
9855;BME280;4966;48.112;9.282;2023-05-29T03:33:39;94668.16;;;9.02;71.91
9855;BME280;4966;48.112;9.282;2023-05-29T03:36:04;94675.50;;;9.01;72.26
9855;BME280;4966;48.112;9.282;2023-05-29T03:38:30;94671.84;;;8.97;72.76
9855;BME280;4966;48.112;9.282;2023-05-29T03:40:55;94666.91;;;8.99;71.92
9855;BME280;4966;48.112;9.282;2023-05-29T03:43:21;94672.94;;;9.05;72.81
9855;BME280;4966;48.112;9.282;2023-05-29T03:45:46;94665.06;;;9.12;72.53
9855;BME280;4966;48.112;9.282;2023-05-29T03:48:11;94674.75;;;9.22;71.42
9855;BME280;4966;48.112;9.282;2023-05-29T03:50:37;94672.66;;;9.27;70.96
9855;BME280;4966;48.112;9.282;2023-05-29T03:53:02;94671.63;;;9.11;71.81
9855;BME280;4966;48.112;9.282;2023-05-29T03:55:27;94681.13;;;9.26;71.15
9855;BME280;4966;48.112;9.282;2023-05-29T03:57:53;94679.84;;;9.23;71.21
9855;BME280;4966;48.112;9.282;2023-05-29T04:00:20;94681.63;;;9.19;71.60
9855;BME280;4966;48.112;9.282;2023-05-29T04:02:45;94685.44;;;9.27;71.49
9855;BME280;4966;48.112;9.282;2023-05-29T04:05:11;94681.25;;;9.29;70.85
9855;BME280;4966;48.112;9.282;2023-05-29T04:07:37;94682.06;;;9.30;71.51
9855;BME280;4966;48.112;9.282;2023-05-29T04:10:04;94680.72;;;9.36;71.28
9855;BME280;4966;48.112;9.282;2023-05-29T04:12:30;94684.13;;;9.54;70.35
9855;BME280;4966;48.112;9.282;2023-05-29T04:14:55;94681.94;;;9.47;71.10
9855;BME280;4966;48.112;9.282;2023-05-29T04:17:20;94692.53;;;9.61;70.50
9855;BME280;4966;48.112;9.282;2023-05-29T04:19:46;94688.03;;;9.65;70.07
9855;BME280;4966;48.112;9.282;2023-05-29T04:22:11;94696.38;;;9.60;70.46
9855;BME280;4966;48.112;9.282;2023-05-29T04:24:36;94696.19;;;9.65;71.25
9855;BME280;4966;48.112;9.282;2023-05-29T04:27:02;94700.94;;;9.68;72.38
9855;BME280;4966;48.112;9.282;2023-05-29T04:29:28;94703.66;;;9.89;71.72
9855;BME280;4966;48.112;9.282;2023-05-29T04:31:54;94714.06;;;10.08;70.42
9855;BME280;4966;48.112;9.282;2023-05-29T04:34:20;94713.16;;;10.16;69.99
9855;BME280;4966;48.112;9.282;2023-05-29T04:36:47;94711.94;;;10.26;69.74
9855;BME280;4966;48.112;9.282;2023-05-29T04:39:13;94711.50;;;10.24;70.13
9855;BME280;4966;48.112;9.282;2023-05-29T04:41:39;94726.28;;;10.35;70.50
9855;BME280;4966;48.112;9.282;2023-05-29T04:44:06;94721.25;;;10.58;69.76
9855;BME280;4966;48.112;9.282;2023-05-29T04:46:31;94719.34;;;10.71;69.78
9855;BME280;4966;48.112;9.282;2023-05-29T04:48:56;94726.63;;;10.92;69.40
9855;BME280;4966;48.112;9.282;2023-05-29T04:51:22;94719.19;;;11.25;69.09
9855;BME280;4966;48.112;9.282;2023-05-29T04:53:50;94723.44;;;11.63;67.95
9855;BME280;4966;48.112;9.282;2023-05-29T04:56:18;94720.91;;;11.95;67.26
9855;BME280;4966;48.112;9.282;2023-05-29T04:58:44;94721.81;;;12.27;65.70
9855;BME280;4966;48.112;9.282;2023-05-29T05:01:09;94722.31;;;12.45;65.49
9855;BME280;4966;48.112;9.282;2023-05-29T05:03:43;94729.19;;;12.71;64.34
9855;BME280;4966;48.112;9.282;2023-05-29T05:06:09;94729.69;;;12.89;63.76
9855;BME280;4966;48.112;9.282;2023-05-29T05:08:34;94735.13;;;13.05;63.90
9855;BME280;4966;48.112;9.282;2023-05-29T05:11:01;94723.75;;;13.18;64.12
9855;BME280;4966;48.112;9.282;2023-05-29T05:13:26;94733.50;;;13.32;64.00
9855;BME280;4966;48.112;9.282;2023-05-29T05:15:52;94729.69;;;13.36;63.40
9855;BME280;4966;48.112;9.282;2023-05-29T05:18:18;94736.41;;;13.39;63.49
9855;BME280;4966;48.112;9.282;2023-05-29T05:20:43;94736.56;;;13.46;63.87
9855;BME280;4966;48.112;9.282;2023-05-29T05:23:09;94727.25;;;13.67;63.96
9855;BME280;4966;48.112;9.282;2023-05-29T05:25:35;94733.16;;;13.69;65.40
9855;BME280;4966;48.112;9.282;2023-05-29T05:28:02;94731.63;;;13.87;65.67
9855;BME280;4966;48.112;9.282;2023-05-29T05:30:28;94729.69;;;13.88;65.20
9855;BME280;4966;48.112;9.282;2023-05-29T05:32:53;94728.13;;;14.06;63.59
9855;BME280;4966;48.112;9.282;2023-05-29T05:35:20;94738.63;;;14.23;63.13
9855;BME280;4966;48.112;9.282;2023-05-29T05:37:45;94733.16;;;14.43;64.04
9855;BME280;4966;48.112;9.282;2023-05-29T05:40:10;94731.16;;;14.59;64.51
9855;BME280;4966;48.112;9.282;2023-05-29T05:42:36;94734.94;;;14.74;64.94
9855;BME280;4966;48.112;9.282;2023-05-29T05:45:01;94730.56;;;14.70;64.92
9855;BME280;4966;48.112;9.282;2023-05-29T05:47:28;94731.06;;;14.98;63.88
9855;BME280;4966;48.112;9.282;2023-05-29T05:49:53;94732.50;;;15.12;64.04
9855;BME280;4966;48.112;9.282;2023-05-29T05:52:19;94726.69;;;15.40;61.17
9855;BME280;4966;48.112;9.282;2023-05-29T05:54:44;94727.91;;;15.69;62.92
9855;BME280;4966;48.112;9.282;2023-05-29T05:57:11;94726.31;;;15.68;56.46
9855;BME280;4966;48.112;9.282;2023-05-29T05:59:37;94737.41;;;16.02;56.03
9855;BME280;4966;48.112;9.282;2023-05-29T06:02:02;94726.66;;;16.50;55.23
9855;BME280;4966;48.112;9.282;2023-05-29T06:04:28;94728.81;;;16.67;53.13
9855;BME280;4966;48.112;9.282;2023-05-29T06:06:54;94737.59;;;16.80;53.28
9855;BME280;4966;48.112;9.282;2023-05-29T06:09:20;94734.50;;;17.22;52.63
9855;BME280;4966;48.112;9.282;2023-05-29T06:11:45;94735.38;;;17.34;52.87
9855;BME280;4966;48.112;9.282;2023-05-29T06:14:11;94729.81;;;17.27;52.05
9855;BME280;4966;48.112;9.282;2023-05-29T06:16:36;94734.44;;;17.19;51.51
9855;BME280;4966;48.112;9.282;2023-05-29T06:19:02;94738.50;;;17.29;50.96
9855;BME280;4966;48.112;9.282;2023-05-29T06:21:27;94739.56;;;17.17;50.75
9855;BME280;4966;48.112;9.282;2023-05-29T06:23:53;94739.81;;;17.46;49.89
9855;BME280;4966;48.112;9.282;2023-05-29T06:26:18;94737.50;;;17.55;50.44
9855;BME280;4966;48.112;9.282;2023-05-29T06:28:43;94738.63;;;17.47;49.21
9855;BME280;4966;48.112;9.282;2023-05-29T06:31:09;94734.91;;;17.76;49.12
9855;BME280;4966;48.112;9.282;2023-05-29T06:33:35;94736.31;;;17.52;49.23
9855;BME280;4966;48.112;9.282;2023-05-29T06:36:02;94741.88;;;18.18;47.86
9855;BME280;4966;48.112;9.282;2023-05-29T06:38:27;94735.63;;;18.25;47.87
9855;BME280;4966;48.112;9.282;2023-05-29T06:40:52;94739.50;;;18.17;48.26
9855;BME280;4966;48.112;9.282;2023-05-29T06:43:18;94732.53;;;18.37;47.79
9855;BME280;4966;48.112;9.282;2023-05-29T06:45:43;94745.84;;;18.21;47.84
9855;BME280;4966;48.112;9.282;2023-05-29T06:48:08;94747.44;;;18.25;47.93
9855;BME280;4966;48.112;9.282;2023-05-29T06:50:34;94744.56;;;18.04;47.36
9855;BME280;4966;48.112;9.282;2023-05-29T06:52:59;94751.59;;;17.98;47.86
9855;BME280;4966;48.112;9.282;2023-05-29T06:55:25;94748.25;;;18.33;47.58
9855;BME280;4966;48.112;9.282;2023-05-29T06:57:50;94749.09;;;18.48;46.66
9855;BME280;4966;48.112;9.282;2023-05-29T07:00:16;94751.91;;;18.59;46.85
9855;BME280;4966;48.112;9.282;2023-05-29T07:02:42;94749.94;;;18.56;46.65
9855;BME280;4966;48.112;9.282;2023-05-29T07:05:07;94750.34;;;18.61;46.53
9855;BME280;4966;48.112;9.282;2023-05-29T07:07:33;94753.22;;;18.90;46.44
9855;BME280;4966;48.112;9.282;2023-05-29T07:09:58;94753.66;;;19.03;46.38
9855;BME280;4966;48.112;9.282;2023-05-29T07:12:23;94764.75;;;19.28;46.33
9855;BME280;4966;48.112;9.282;2023-05-29T07:14:49;94757.59;;;19.02;45.34
9855;BME280;4966;48.112;9.282;2023-05-29T07:17:14;94755.69;;;19.49;45.63
9855;BME280;4966;48.112;9.282;2023-05-29T07:19:40;94753.31;;;19.33;44.39
9855;BME280;4966;48.112;9.282;2023-05-29T07:22:06;94755.31;;;19.47;44.72
9855;BME280;4966;48.112;9.282;2023-05-29T07:24:31;94762.41;;;19.55;44.16
9855;BME280;4966;48.112;9.282;2023-05-29T07:26:56;94753.31;;;19.65;43.36
9855;BME280;4966;48.112;9.282;2023-05-29T07:29:22;94762.03;;;19.92;44.17
9855;BME280;4966;48.112;9.282;2023-05-29T07:31:49;94760.03;;;19.96;43.77
9855;BME280;4966;48.112;9.282;2023-05-29T07:34:14;94751.38;;;19.98;43.81
9855;BME280;4966;48.112;9.282;2023-05-29T07:39:21;94757.19;;;20.32;43.09
9855;BME280;4966;48.112;9.282;2023-05-29T07:41:46;94763.88;;;20.53;42.09
9855;BME280;4966;48.112;9.282;2023-05-29T07:44:11;94762.75;;;20.29;42.68
9855;BME280;4966;48.112;9.282;2023-05-29T07:46:36;94750.84;;;20.60;42.98
9855;BME280;4966;48.112;9.282;2023-05-29T07:49:02;94760.53;;;21.01;43.33
9855;BME280;4966;48.112;9.282;2023-05-29T07:51:27;94765.38;;;20.79;40.85
9855;BME280;4966;48.112;9.282;2023-05-29T07:53:52;94757.88;;;20.79;40.68
9855;BME280;4966;48.112;9.282;2023-05-29T07:56:18;94746.25;;;21.10;40.20
9855;BME280;4966;48.112;9.282;2023-05-29T07:58:43;94754.63;;;21.62;40.59
9855;BME280;4966;48.112;9.282;2023-05-29T08:01:08;94756.53;;;21.72;40.59
9855;BME280;4966;48.112;9.282;2023-05-29T08:03:34;94754.34;;;21.94;42.90
9855;BME280;4966;48.112;9.282;2023-05-29T08:05:59;94753.19;;;21.92;39.56
9855;BME280;4966;48.112;9.282;2023-05-29T08:08:24;94755.03;;;21.60;39.41
9855;BME280;4966;48.112;9.282;2023-05-29T08:10:50;94757.06;;;22.01;40.64
9855;BME280;4966;48.112;9.282;2023-05-29T08:13:15;94760.34;;;22.34;40.46
9855;BME280;4966;48.112;9.282;2023-05-29T08:15:41;94765.06;;;22.34;38.35
9855;BME280;4966;48.112;9.282;2023-05-29T08:18:06;94751.66;;;21.87;39.34
9855;BME280;4966;48.112;9.282;2023-05-29T08:20:31;94759.13;;;21.94;40.13
9855;BME280;4966;48.112;9.282;2023-05-29T08:22:57;94764.28;;;21.39;39.31
9855;BME280;4966;48.112;9.282;2023-05-29T08:25:22;94756.16;;;21.66;39.97
9855;BME280;4966;48.112;9.282;2023-05-29T08:27:47;94762.03;;;22.24;41.81
9855;BME280;4966;48.112;9.282;2023-05-29T08:30:13;94765.75;;;22.45;38.05
9855;BME280;4966;48.112;9.282;2023-05-29T08:32:38;94764.97;;;22.44;37.17
9855;BME280;4966;48.112;9.282;2023-05-29T08:35:04;94764.34;;;22.29;36.99
9855;BME280;4966;48.112;9.282;2023-05-29T08:37:29;94763.06;;;22.38;37.70
9855;BME280;4966;48.112;9.282;2023-05-29T08:39:55;94761.38;;;22.47;37.61
9855;BME280;4966;48.112;9.282;2023-05-29T08:42:21;94778.53;;;22.73;38.02
9855;BME280;4966;48.112;9.282;2023-05-29T08:44:56;94773.06;;;22.66;38.42
9855;BME280;4966;48.112;9.282;2023-05-29T08:47:26;94774.91;;;22.76;36.74
9855;BME280;4966;48.112;9.282;2023-05-29T08:49:53;94778.72;;;22.89;36.93
9855;BME280;4966;48.112;9.282;2023-05-29T08:52:21;94774.50;;;23.12;37.66
9855;BME280;4966;48.112;9.282;2023-05-29T08:54:47;94777.81;;;23.30;38.15
9855;BME280;4966;48.112;9.282;2023-05-29T08:57:12;94773.81;;;23.31;38.54
9855;BME280;4966;48.112;9.282;2023-05-29T08:59:41;94776.78;;;23.17;36.72
9855;BME280;4966;48.112;9.282;2023-05-29T09:02:07;94775.22;;;23.47;37.26
9855;BME280;4966;48.112;9.282;2023-05-29T09:04:32;94787.00;;;23.54;36.65
9855;BME280;4966;48.112;9.282;2023-05-29T09:06:59;94785.16;;;23.44;37.63
9855;BME280;4966;48.112;9.282;2023-05-29T09:09:26;94777.69;;;23.65;36.32
9855;BME280;4966;48.112;9.282;2023-05-29T09:11:53;94784.41;;;23.40;36.61
9855;BME280;4966;48.112;9.282;2023-05-29T09:14:38;94785.94;;;23.72;35.35
9855;BME280;4966;48.112;9.282;2023-05-29T09:17:06;94779.75;;;23.61;35.19
9855;BME280;4966;48.112;9.282;2023-05-29T09:19:34;94783.38;;;22.96;33.96
9855;BME280;4966;48.112;9.282;2023-05-29T09:22:10;94781.75;;;23.33;35.39
9855;BME280;4966;48.112;9.282;2023-05-29T09:24:36;94781.94;;;23.19;35.77
9855;BME280;4966;48.112;9.282;2023-05-29T09:27:03;94785.91;;;23.18;34.64
9855;BME280;4966;48.112;9.282;2023-05-29T09:29:41;94788.53;;;23.28;35.74
9855;BME280;4966;48.112;9.282;2023-05-29T09:32:11;94781.34;;;23.34;35.73
9855;BME280;4966;48.112;9.282;2023-05-29T09:34:37;94779.53;;;23.21;35.41
9855;BME280;4966;48.112;9.282;2023-05-29T09:37:03;94790.53;;;22.93;34.03
9855;BME280;4966;48.112;9.282;2023-05-29T09:39:34;94782.78;;;22.47;33.58
9855;BME280;4966;48.112;9.282;2023-05-29T09:41:59;94797.09;;;22.76;34.07
9855;BME280;4966;48.112;9.282;2023-05-29T09:44:26;94798.13;;;22.89;33.28
9855;BME280;4966;48.112;9.282;2023-05-29T09:46:57;94797.28;;;23.27;34.93
9855;BME280;4966;48.112;9.282;2023-05-29T09:49:25;94789.22;;;23.36;32.00
9855;BME280;4966;48.112;9.282;2023-05-29T09:51:53;94801.00;;;23.44;33.55
9855;BME280;4966;48.112;9.282;2023-05-29T09:54:19;94803.94;;;23.33;32.51
9855;BME280;4966;48.112;9.282;2023-05-29T09:56:45;94801.41;;;22.81;32.99
9855;BME280;4966;48.112;9.282;2023-05-29T09:59:12;94799.34;;;23.50;31.41
9855;BME280;4966;48.112;9.282;2023-05-29T10:01:42;94792.16;;;23.25;32.59
9855;BME280;4966;48.112;9.282;2023-05-29T10:04:09;94790.50;;;23.59;33.39
9855;BME280;4966;48.112;9.282;2023-05-29T10:06:36;94792.16;;;24.07;33.75
9855;BME280;4966;48.112;9.282;2023-05-29T10:09:02;94792.38;;;24.39;32.76
9855;BME280;4966;48.112;9.282;2023-05-29T10:11:31;94801.91;;;23.91;31.06
9855;BME280;4966;48.112;9.282;2023-05-29T10:14:00;94791.59;;;23.38;31.40
9855;BME280;4966;48.112;9.282;2023-05-29T10:16:27;94801.63;;;23.59;31.37
9855;BME280;4966;48.112;9.282;2023-05-29T10:18:56;94803.09;;;23.63;32.34
9855;BME280;4966;48.112;9.282;2023-05-29T10:21:25;94790.16;;;24.07;32.15
9855;BME280;4966;48.112;9.282;2023-05-29T10:23:52;94793.59;;;23.91;31.94
9855;BME280;4966;48.112;9.282;2023-05-29T10:26:26;94793.09;;;23.69;32.65
9855;BME280;4966;48.112;9.282;2023-05-29T10:32:20;94798.00;;;23.89;31.61
9855;BME280;4966;48.112;9.282;2023-05-29T10:35:18;94797.94;;;24.39;32.10
9855;BME280;4966;48.112;9.282;2023-05-29T10:37:53;94793.66;;;23.88;31.42
9855;BME280;4966;48.112;9.282;2023-05-29T10:40:24;94796.38;;;24.62;32.36
9855;BME280;4966;48.112;9.282;2023-05-29T10:42:51;94795.69;;;23.84;31.38
9855;BME280;4966;48.112;9.282;2023-05-29T10:50:41;94794.97;;;23.22;31.14
9855;BME280;4966;48.112;9.282;2023-05-29T10:53:13;94786.28;;;22.85;32.47
9855;BME280;4966;48.112;9.282;2023-05-29T10:55:40;94789.94;;;23.13;32.55
9855;BME280;4966;48.112;9.282;2023-05-29T10:58:12;94784.59;;;24.07;31.08
9855;BME280;4966;48.112;9.282;2023-05-29T11:00:42;94790.94;;;25.35;29.26
9855;BME280;4966;48.112;9.282;2023-05-29T11:03:08;94774.47;;;26.42;26.90
9855;BME280;4966;48.112;9.282;2023-05-29T11:05:33;94774.78;;;27.32;23.43
9855;BME280;4966;48.112;9.282;2023-05-29T11:08:00;94773.31;;;28.30;24.08
9855;BME280;4966;48.112;9.282;2023-05-29T11:13:26;94768.19;;;29.20;23.92
9855;BME280;4966;48.112;9.282;2023-05-29T11:18:51;94771.34;;;28.17;22.31
9855;BME280;4966;48.112;9.282;2023-05-29T11:24:06;94761.13;;;28.36;21.81
9855;BME280;4966;48.112;9.282;2023-05-29T11:26:32;94773.94;;;30.19;20.21
9855;BME280;4966;48.112;9.282;2023-05-29T11:29:03;94766.69;;;29.28;23.11
9855;BME280;4966;48.112;9.282;2023-05-29T11:31:32;94759.38;;;30.98;20.13
9855;BME280;4966;48.112;9.282;2023-05-29T11:34:00;94763.41;;;31.25;19.51
9855;BME280;4966;48.112;9.282;2023-05-29T11:36:28;94761.25;;;29.96;19.14
9855;BME280;4966;48.112;9.282;2023-05-29T11:38:53;94754.00;;;30.17;18.61
9855;BME280;4966;48.112;9.282;2023-05-29T11:41:19;94764.47;;;31.36;20.22
9855;BME280;4966;48.112;9.282;2023-05-29T11:43:56;94751.88;;;32.65;19.42
9855;BME280;4966;48.112;9.282;2023-05-29T11:46:21;94755.16;;;33.02;18.04
9855;BME280;4966;48.112;9.282;2023-05-29T11:48:47;94760.69;;;32.58;16.53
9855;BME280;4966;48.112;9.282;2023-05-29T11:51:12;94746.25;;;30.30;16.85
9855;BME280;4966;48.112;9.282;2023-05-29T11:53:42;94759.75;;;29.42;18.77
9855;BME280;4966;48.112;9.282;2023-05-29T11:56:09;94759.81;;;31.15;17.94
9855;BME280;4966;48.112;9.282;2023-05-29T11:58:42;94753.84;;;33.28;17.47
9855;BME280;4966;48.112;9.282;2023-05-29T12:01:08;94758.25;;;33.58;16.01
9855;BME280;4966;48.112;9.282;2023-05-29T12:03:40;94761.75;;;34.53;16.97
9855;BME280;4966;48.112;9.282;2023-05-29T12:06:06;94751.88;;;34.84;15.61
9855;BME280;4966;48.112;9.282;2023-05-29T12:08:32;94756.13;;;35.00;14.55
9855;BME280;4966;48.112;9.282;2023-05-29T12:10:58;94752.31;;;34.21;15.60
9855;BME280;4966;48.112;9.282;2023-05-29T12:13:23;94753.16;;;34.63;13.93
9855;BME280;4966;48.112;9.282;2023-05-29T12:15:52;94760.47;;;34.55;15.25
9855;BME280;4966;48.112;9.282;2023-05-29T12:18:19;94754.75;;;33.63;14.12
9855;BME280;4966;48.112;9.282;2023-05-29T12:20:45;94750.00;;;32.14;16.68
9855;BME280;4966;48.112;9.282;2023-05-29T12:23:10;94747.44;;;33.42;16.26
9855;BME280;4966;48.112;9.282;2023-05-29T12:25:37;94753.44;;;33.94;15.08
9855;BME280;4966;48.112;9.282;2023-05-29T12:28:03;94752.25;;;34.16;15.15
9855;BME280;4966;48.112;9.282;2023-05-29T12:30:29;94752.09;;;35.07;15.79
9855;BME280;4966;48.112;9.282;2023-05-29T12:32:54;94760.38;;;34.28;15.45
9855;BME280;4966;48.112;9.282;2023-05-29T12:37:54;94766.94;;;34.40;17.03
9855;BME280;4966;48.112;9.282;2023-05-29T12:40:25;94753.53;;;35.69;16.43
9855;BME280;4966;48.112;9.282;2023-05-29T12:42:58;94748.97;;;35.51;16.14
9855;BME280;4966;48.112;9.282;2023-05-29T12:45:25;94758.81;;;36.68;15.51
9855;BME280;4966;48.112;9.282;2023-05-29T12:47:52;94754.66;;;34.23;15.12
9855;BME280;4966;48.112;9.282;2023-05-29T12:52:46;94759.78;;;35.27;15.54
9855;BME280;4966;48.112;9.282;2023-05-29T12:55:11;94765.16;;;36.09;15.58
9855;BME280;4966;48.112;9.282;2023-05-29T12:57:36;94756.09;;;35.99;16.35
9855;BME280;4966;48.112;9.282;2023-05-29T13:00:02;94754.72;;;36.64;15.79
9855;BME280;4966;48.112;9.282;2023-05-29T13:02:27;94751.31;;;37.25;15.13
9855;BME280;4966;48.112;9.282;2023-05-29T13:04:54;94745.38;;;37.17;14.36
9855;BME280;4966;48.112;9.282;2023-05-29T13:07:19;94754.25;;;36.82;14.98
9855;BME280;4966;48.112;9.282;2023-05-29T13:09:45;94763.06;;;36.47;14.78
9855;BME280;4966;48.112;9.282;2023-05-29T13:12:10;94755.22;;;36.68;12.62
9855;BME280;4966;48.112;9.282;2023-05-29T13:14:35;94760.34;;;34.84;13.56
9855;BME280;4966;48.112;9.282;2023-05-29T13:17:01;94765.56;;;34.50;16.38
9855;BME280;4966;48.112;9.282;2023-05-29T13:19:26;94753.69;;;34.87;16.50
9855;BME280;4966;48.112;9.282;2023-05-29T13:21:51;94758.53;;;35.86;15.65
9855;BME280;4966;48.112;9.282;2023-05-29T13:24:17;94758.94;;;36.96;15.67
9855;BME280;4966;48.112;9.282;2023-05-29T13:26:42;94747.78;;;37.53;14.46
9855;BME280;4966;48.112;9.282;2023-05-29T13:29:07;94753.53;;;38.84;13.54
9855;BME280;4966;48.112;9.282;2023-05-29T13:31:33;94758.72;;;38.80;13.29
9855;BME280;4966;48.112;9.282;2023-05-29T13:33:58;94746.22;;;37.63;13.77
9855;BME280;4966;48.112;9.282;2023-05-29T13:36:23;94741.00;;;38.40;12.41
9855;BME280;4966;48.112;9.282;2023-05-29T13:38:49;94751.28;;;38.66;13.41
9855;BME280;4966;48.112;9.282;2023-05-29T13:41:14;94744.06;;;37.13;13.75
9855;BME280;4966;48.112;9.282;2023-05-29T13:43:39;94743.06;;;37.27;13.48
9855;BME280;4966;48.112;9.282;2023-05-29T13:46:05;94747.19;;;38.50;14.10